createdAt,value
2018-02-23T00:00:28.691Z,71.40
2018-02-23T00:02:56.182Z,71.43
2018-02-23T00:05:23.727Z,71.10
2018-02-23T00:07:51.221Z,71.49
2018-02-23T00:10:18.691Z,71.75
2018-02-23T00:12:46.192Z,72.04
2018-02-23T00:15:13.653Z,72.03
2018-02-23T00:17:41.137Z,72.19
2018-02-23T00:20:08.614Z,72.60
2018-02-23T00:22:42.076Z,72.87
2018-02-23T00:25:09.547Z,71.40
2018-02-23T00:27:37.030Z,71.61
2018-02-23T00:30:04.507Z,71.76
2018-02-23T00:32:31.992Z,72.09
2018-02-23T00:34:59.468Z,71.69
2018-02-23T00:37:26.954Z,71.75
2018-02-23T00:39:54.431Z,71.87
2018-02-23T00:42:21.919Z,70.90
2018-02-23T00:44:49.378Z,71.27
2018-02-23T00:47:16.866Z,70.94
2018-02-23T00:49:44.337Z,71.12
2018-02-23T00:52:11.849Z,71.33
2018-02-23T00:54:39.311Z,71.15
2018-02-23T00:57:06.815Z,70.76
2018-02-23T00:59:34.287Z,70.53
2018-02-23T01:02:01.772Z,70.75
2018-02-23T01:04:29.231Z,70.49
2018-02-23T01:06:56.735Z,70.74
2018-02-23T01:09:24.196Z,71.37
2018-02-23T01:11:51.690Z,71.03
2018-02-23T01:14:19.161Z,71.38
2018-02-23T01:16:46.646Z,71.57
2018-02-23T01:19:14.136Z,71.40
2018-02-23T01:21:41.607Z,71.09
2018-02-23T01:24:09.099Z,71.04
2018-02-23T01:26:36.565Z,71.84
2018-02-23T01:29:04.053Z,72.20
2018-02-23T01:31:31.550Z,72.57
2018-02-23T01:33:59.125Z,72.30
2018-02-23T01:36:26.582Z,71.88
2018-02-23T01:38:54.106Z,72.25
2018-02-23T01:41:21.607Z,72.26
2018-02-23T01:43:49.083Z,71.98
2018-02-23T01:46:16.546Z,72.15
2018-02-23T01:48:44.035Z,71.29
2018-02-23T01:51:11.507Z,70.10
2018-02-23T01:53:39.004Z,70.96
2018-02-23T01:56:06.473Z,70.21
2018-02-23T01:58:33.960Z,70.26
2018-02-23T02:01:01.432Z,69.25
2018-02-23T02:03:28.934Z,68.46
2018-02-23T02:05:56.400Z,68.54
2018-02-23T02:08:23.902Z,68.90
2018-02-23T02:10:51.359Z,68.87
2018-02-23T02:13:18.845Z,69.24
2018-02-23T02:15:46.318Z,68.97
2018-02-23T02:18:13.815Z,68.97
2018-02-23T02:20:41.291Z,69.42
2018-02-23T02:23:08.767Z,69.20
2018-02-23T02:25:36.228Z,69.69
2018-02-23T02:28:03.756Z,69.70
2018-02-23T02:30:31.265Z,70.92
2018-02-23T02:32:58.763Z,70.81
2018-02-23T02:35:26.239Z,71.73
2018-02-23T02:37:53.704Z,71.41
2018-02-23T02:40:21.186Z,71.45
2018-02-23T02:42:48.647Z,71.92
2018-02-23T02:45:16.130Z,72.22
2018-02-23T02:47:43.594Z,71.95
2018-02-23T02:50:11.084Z,72.26
2018-02-23T02:52:38.547Z,72.96
2018-02-23T02:55:06.035Z,72.80
2018-02-23T02:57:33.496Z,72.58
2018-02-23T03:00:00.990Z,71.86
2018-02-23T03:02:28.462Z,72.27
2018-02-23T03:04:55.967Z,72.70
2018-02-23T03:07:23.455Z,72.27
2018-02-23T03:09:50.944Z,72.60
2018-02-23T03:12:18.427Z,72.75
2018-02-23T03:14:45.900Z,73.67
2018-02-23T03:17:13.444Z,73.97
2018-02-23T03:19:40.885Z,74.75
2018-02-23T03:22:08.375Z,73.71
2018-02-23T03:24:35.912Z,74.09
2018-02-23T03:27:03.403Z,73.98
2018-02-23T03:29:30.879Z,74.39
2018-02-23T03:31:58.376Z,74.77
2018-02-23T03:34:25.847Z,74.73
2018-02-23T03:36:54.081Z,74.24
2018-02-23T03:39:21.551Z,74.74
2018-02-23T03:41:49.026Z,74.58
2018-02-23T03:44:16.518Z,74.58
2018-02-23T03:46:44.015Z,74.55
2018-02-23T03:49:11.508Z,74.96
2018-02-23T03:51:38.997Z,75.14
2018-02-23T03:54:06.528Z,75.39
2018-02-23T03:56:34.004Z,75.83
2018-02-23T03:59:01.496Z,75.86
2018-02-23T04:01:28.986Z,76.50
2018-02-23T04:03:56.494Z,76.50
2018-02-23T04:06:23.966Z,76.87
2018-02-23T04:08:51.438Z,76.89
2018-02-23T04:11:18.925Z,77.01
2018-02-23T04:13:46.400Z,76.91
2018-02-23T04:16:13.919Z,77.32
2018-02-23T04:18:41.396Z,77.28
2018-02-23T04:21:08.894Z,77.44
2018-02-23T04:23:36.368Z,77.29
2018-02-23T04:26:03.883Z,77.48
2018-02-23T04:28:31.362Z,76.87
2018-02-23T04:30:58.867Z,76.65
2018-02-23T04:33:26.335Z,76.49
2018-02-23T04:35:53.844Z,76.35
2018-02-23T04:38:21.328Z,76.63
2018-02-23T04:40:48.823Z,76.98
2018-02-23T04:43:16.304Z,77.24
2018-02-23T04:45:43.990Z,77.22
2018-02-23T04:48:11.463Z,77.77
2018-02-23T04:50:38.956Z,78.07
2018-02-23T04:53:07.203Z,78.28
2018-02-23T04:55:34.707Z,78.57
2018-02-23T04:58:02.175Z,78.57
2018-02-23T05:00:29.670Z,78.69
2018-02-23T05:02:57.146Z,78.31
2018-02-23T05:05:25.507Z,78.50
2018-02-23T05:07:52.973Z,78.78
2018-02-23T05:10:21.132Z,79.25
2018-02-23T05:12:48.618Z,79.25
2018-02-23T05:15:16.110Z,79.30
2018-02-23T05:17:43.579Z,79.08
2018-02-23T05:20:11.042Z,78.59
2018-02-23T05:22:38.542Z,78.01
2018-02-23T05:25:06.022Z,77.88
2018-02-23T05:27:33.520Z,77.46
2018-02-23T05:30:00.991Z,78.37
2018-02-23T05:32:28.480Z,78.95
2018-02-23T05:34:55.953Z,78.59
2018-02-23T05:37:23.451Z,79.00
2018-02-23T05:39:50.922Z,79.01
2018-02-23T05:42:18.411Z,79.18
2018-02-23T05:44:45.875Z,79.16
2018-02-23T05:47:13.367Z,79.62
2018-02-23T05:49:40.835Z,79.18
2018-02-23T05:52:08.327Z,78.91
2018-02-23T05:54:35.799Z,78.20
2018-02-23T05:57:03.730Z,78.19
2018-02-23T05:59:31.213Z,78.63
2018-02-23T06:01:58.735Z,78.74
2018-02-23T06:04:26.224Z,77.98
2018-02-23T06:06:53.719Z,77.42
2018-02-23T06:09:21.185Z,77.45
2018-02-23T06:11:48.675Z,78.36
2018-02-23T06:14:16.150Z,78.77
2018-02-23T06:16:43.639Z,78.91
2018-02-23T06:19:11.115Z,78.32
2018-02-23T06:21:38.603Z,78.10
2018-02-23T06:24:06.071Z,78.20
2018-02-23T06:26:33.574Z,77.66
2018-02-23T06:29:01.055Z,78.13
2018-02-23T06:31:28.547Z,78.59
2018-02-23T06:33:56.029Z,78.94
2018-02-23T06:36:23.531Z,79.52
2018-02-23T06:38:50.999Z,80.61
2018-02-23T06:41:18.539Z,80.76
2018-02-23T06:43:46.028Z,80.71
2018-02-23T06:46:13.496Z,80.42
2018-02-23T06:48:40.991Z,79.86
2018-02-23T06:51:08.464Z,79.43
2018-02-23T06:53:35.956Z,79.66
2018-02-23T06:56:03.440Z,79.57
2018-02-23T06:58:30.944Z,79.59
2018-02-23T07:00:58.411Z,79.56
2018-02-23T07:03:25.909Z,79.46
2018-02-23T07:05:53.872Z,79.25
2018-02-23T07:08:21.365Z,78.46
2018-02-23T07:10:49.500Z,78.12
2018-02-23T07:13:16.964Z,77.54
2018-02-23T07:15:44.462Z,76.64
2018-02-23T07:18:11.961Z,75.34
2018-02-23T07:20:39.439Z,74.26
2018-02-23T07:23:06.933Z,73.03
2018-02-23T07:25:34.394Z,71.73
2018-02-23T07:28:02.739Z,71.52
2018-02-23T07:30:30.201Z,70.55
2018-02-23T07:32:57.770Z,70.73
2018-02-23T07:35:25.271Z,69.36
2018-02-23T07:37:52.757Z,67.09
2018-02-23T07:40:20.228Z,65.14
2018-02-23T07:42:47.715Z,64.58
2018-02-23T07:45:15.182Z,65.95
2018-02-23T07:47:42.675Z,65.81
2018-02-23T07:50:10.142Z,64.29
2018-02-23T07:52:37.631Z,62.96
2018-02-23T07:55:05.108Z,62.58
2018-02-23T07:57:32.592Z,63.15
2018-02-23T08:00:00.064Z,62.50
2018-02-23T08:02:27.606Z,60.88
2018-02-23T08:04:55.076Z,61.03
2018-02-23T08:07:22.584Z,61.00
2018-02-23T08:09:50.075Z,59.34
2018-02-23T08:12:17.551Z,61.23
2018-02-23T08:14:45.053Z,60.70
2018-02-23T08:17:12.512Z,60.53
2018-02-23T08:19:40.001Z,60.30
2018-02-23T08:22:07.463Z,60.37
2018-02-23T08:24:34.951Z,61.20
2018-02-23T08:27:02.447Z,60.93
2018-02-23T08:29:29.923Z,59.89
2018-02-23T08:31:57.380Z,60.34
2018-02-23T08:34:24.876Z,59.24
2018-02-23T08:36:52.367Z,58.53
2018-02-23T08:39:19.846Z,58.65
2018-02-23T08:41:47.313Z,59.90
2018-02-23T08:44:14.812Z,58.52
2018-02-23T08:46:42.282Z,59.89
2018-02-23T08:49:09.769Z,57.12
2018-02-23T08:51:37.232Z,58.52
2018-02-23T08:54:04.712Z,59.60
2018-02-23T08:56:32.174Z,57.73
2018-02-23T08:58:59.677Z,56.86
2018-02-23T09:01:27.188Z,58.38
2018-02-23T09:03:54.673Z,58.63
2018-02-23T09:06:22.143Z,58.83
2018-02-23T09:08:49.626Z,59.04
2018-02-23T09:11:17.114Z,57.93
2018-02-23T09:13:44.609Z,59.95
2018-02-23T09:16:12.076Z,57.53
2018-02-23T09:18:39.559Z,57.52
2018-02-23T09:21:07.022Z,56.29
2018-02-23T09:23:34.511Z,58.07
2018-02-23T09:26:01.972Z,57.09
2018-02-23T09:28:29.433Z,55.95
2018-02-23T09:30:56.917Z,55.75
2018-02-23T09:36:23.241Z,55.39
2018-02-23T09:38:50.951Z,57.03
2018-02-23T09:41:18.411Z,55.12
2018-02-23T09:43:45.879Z,55.39
2018-02-23T09:46:13.370Z,54.78
2018-02-23T09:48:40.829Z,53.72
2018-02-23T09:51:08.307Z,52.17
2018-02-23T09:53:35.764Z,53.68
2018-02-23T09:56:03.249Z,52.82
2018-02-23T09:58:30.769Z,52.94
2018-02-23T10:00:58.263Z,53.58
2018-02-23T10:03:25.763Z,51.14
2018-02-23T10:05:53.247Z,53.77
2018-02-23T10:08:20.708Z,52.88
2018-02-23T10:10:48.254Z,51.89
2018-02-23T10:13:15.671Z,49.33
2018-02-23T10:15:43.174Z,49.37
2018-02-23T10:18:10.640Z,49.56
2018-02-23T10:20:38.122Z,51.06
2018-02-23T10:23:06.724Z,50.47
2018-02-23T10:25:34.214Z,48.96
2018-02-23T10:28:01.693Z,51.06
2018-02-23T10:30:29.164Z,49.47
2018-02-23T10:32:56.624Z,50.74
2018-02-23T10:35:24.103Z,49.88
2018-02-23T10:37:51.555Z,48.82
2018-02-23T10:40:19.047Z,49.53
2018-02-23T10:42:46.524Z,50.23
2018-02-23T10:45:14.029Z,49.45
2018-02-23T10:47:41.474Z,47.97
2018-02-23T10:50:08.963Z,47.57
2018-02-23T10:52:36.423Z,48.33
2018-02-23T10:55:04.296Z,48.30
2018-02-23T10:57:31.776Z,49.47
2018-02-23T10:59:59.250Z,47.49
2018-02-23T11:02:26.715Z,47.87
2018-02-23T11:04:54.194Z,47.93
2018-02-23T11:07:21.678Z,47.61
2018-02-23T11:09:49.142Z,48.42
2018-02-23T11:12:16.624Z,47.56
2018-02-23T11:14:44.093Z,47.65
2018-02-23T11:17:11.572Z,46.83
2018-02-23T11:19:39.026Z,46.94
2018-02-23T11:22:06.512Z,47.54
2018-02-23T11:24:33.963Z,47.04
2018-02-23T11:27:01.444Z,46.24
2018-02-23T11:29:29.724Z,47.48
2018-02-23T11:31:57.207Z,47.44
2018-02-23T11:34:24.685Z,47.95
2018-02-23T11:36:52.167Z,44.31
2018-02-23T11:39:19.636Z,43.09
2018-02-23T11:41:47.103Z,45.30
2018-02-23T11:44:14.840Z,45.13
2018-02-23T11:46:42.340Z,43.09
2018-02-23T11:49:09.811Z,46.53
2018-02-23T11:51:37.341Z,45.73
2018-02-23T11:54:05.275Z,45.39
2018-02-23T11:56:32.827Z,47.52
2018-02-23T11:59:00.297Z,44.69
2018-02-23T12:01:27.784Z,46.73
2018-02-23T12:03:55.717Z,47.27
2018-02-23T12:06:23.240Z,45.77
2018-02-23T12:08:50.746Z,45.04
2018-02-23T12:11:18.340Z,44.95
2018-02-23T12:13:45.888Z,44.01
2018-02-23T12:16:13.466Z,43.87
2018-02-23T12:18:42.403Z,44.33
2018-02-23T12:21:09.948Z,44.05
2018-02-23T12:23:37.494Z,43.83
2018-02-23T12:26:05.045Z,44.46
2018-02-23T12:28:34.594Z,43.88
2018-02-23T12:31:02.117Z,43.84
2018-02-23T12:33:29.622Z,44.07
2018-02-23T12:36:04.563Z,44.20
2018-02-23T12:38:33.621Z,43.49
2018-02-23T12:41:02.895Z,42.53
2018-02-23T12:43:32.419Z,45.70
2018-02-23T12:46:00.142Z,43.21
2018-02-23T12:48:28.502Z,42.96
2018-02-23T12:50:56.174Z,42.19
2018-02-23T12:53:23.870Z,42.53
2018-02-23T12:55:51.594Z,41.36
2018-02-23T12:58:19.268Z,41.38
2018-02-23T13:00:47.597Z,42.86
2018-02-23T13:03:15.264Z,41.13
2018-02-23T13:05:43.123Z,42.64
2018-02-23T13:08:10.769Z,41.08
2018-02-23T13:10:38.545Z,40.76
2018-02-23T13:13:06.317Z,40.42
2018-02-23T13:15:34.230Z,40.04
2018-02-23T13:18:01.743Z,42.73
2018-02-23T13:20:29.227Z,41.28
2018-02-23T13:22:56.947Z,41.38
2018-02-23T13:25:24.431Z,39.96
2018-02-23T13:27:57.423Z,39.13
2018-02-23T13:30:25.061Z,38.90
2018-02-23T13:32:52.555Z,38.66
2018-02-23T13:35:20.019Z,37.72
2018-02-23T13:37:47.522Z,37.28
2018-02-23T13:40:15.011Z,36.20
2018-02-23T13:42:42.511Z,34.95
2018-02-23T13:45:10.004Z,33.97
2018-02-23T13:47:37.512Z,31.21
2018-02-23T13:50:05.204Z,30.45
2018-02-23T13:52:32.816Z,32.04
2018-02-23T13:55:00.326Z,30.65
2018-02-23T13:57:27.835Z,29.79
2018-02-23T13:59:55.567Z,29.92
2018-02-23T14:02:23.076Z,29.50
2018-02-23T14:04:50.622Z,29.57
2018-02-23T14:07:33.198Z,28.72
2018-02-23T14:10:00.674Z,29.15
2018-02-23T14:12:28.162Z,28.91
2018-02-23T14:14:55.695Z,27.75
2018-02-23T14:17:23.535Z,28.22
2018-02-23T14:19:51.473Z,28.12
2018-02-23T14:22:18.952Z,27.57
2018-02-23T14:24:46.453Z,28.54
2018-02-23T14:27:13.951Z,27.92
2018-02-23T14:29:41.442Z,27.74
2018-02-23T14:32:08.919Z,29.01
2018-02-23T14:34:36.500Z,28.69
2018-02-23T14:37:04.045Z,27.93
2018-02-23T14:39:31.651Z,28.84
2018-02-23T14:41:59.616Z,27.47
2018-02-23T14:44:27.195Z,27.65
2018-02-23T14:46:54.686Z,29.23
2018-02-23T14:49:22.228Z,28.83
2018-02-23T14:51:49.801Z,28.52
2018-02-23T14:54:17.297Z,29.80
2018-02-23T14:56:44.779Z,28.36
2018-02-23T14:59:12.271Z,29.64
2018-02-23T15:01:39.757Z,28.64
2018-02-23T15:04:07.260Z,28.00
2018-02-23T15:06:34.749Z,28.90
2018-02-23T15:09:02.312Z,29.60
2018-02-23T15:11:29.821Z,28.25
2018-02-23T15:13:57.327Z,29.08
2018-02-23T15:16:25.053Z,28.41
2018-02-23T15:18:52.563Z,29.21
2018-02-23T15:21:20.319Z,29.85
2018-02-23T15:23:47.947Z,29.72
2018-02-23T15:26:15.424Z,30.77
2018-02-23T15:28:43.864Z,29.55
2018-02-23T15:31:23.191Z,29.17
2018-02-23T15:33:50.758Z,29.13
2018-02-23T15:36:18.286Z,29.58
2018-02-23T15:38:45.796Z,30.70
2018-02-23T15:41:13.290Z,30.04
2018-02-23T15:46:12.537Z,31.93
2018-02-23T15:51:52.243Z,30.48
2018-02-23T15:54:20.349Z,32.33
2018-02-23T15:56:47.840Z,32.27
2018-02-23T15:59:15.329Z,33.79
2018-02-23T16:01:44.724Z,33.31
2018-02-23T16:04:12.234Z,34.71
2018-02-23T16:06:39.715Z,35.43
2018-02-23T16:09:07.196Z,33.69
2018-02-23T16:11:35.212Z,35.50
2018-02-23T16:14:02.699Z,35.62
2018-02-23T16:16:30.199Z,37.26
2018-02-23T16:18:57.643Z,38.72
2018-02-23T16:21:25.151Z,39.60
2018-02-23T16:23:52.616Z,40.64
2018-02-23T16:26:21.556Z,41.04
2018-02-23T16:28:49.065Z,41.67
2018-02-23T16:31:16.572Z,41.89
2018-02-23T16:33:44.063Z,43.20
2018-02-23T16:36:12.621Z,43.87
2018-02-23T16:38:49.340Z,44.86
2018-02-23T16:41:16.862Z,44.39
2018-02-23T16:43:44.424Z,44.58
2018-02-23T16:46:12.000Z,45.98
2018-02-23T16:48:39.497Z,45.75
2018-02-23T16:51:07.043Z,45.58
2018-02-23T16:53:34.512Z,45.82
2018-02-23T16:56:02.014Z,46.53
2018-02-23T16:58:29.492Z,47.72
2018-02-23T17:00:57.005Z,46.84
2018-02-23T17:03:26.459Z,46.86
2018-02-23T17:05:54.051Z,47.40
2018-02-23T17:08:21.638Z,46.81
2018-02-23T17:10:49.161Z,48.04
2018-02-23T17:13:16.677Z,48.58
2018-02-23T17:15:44.189Z,48.34
2018-02-23T17:18:11.670Z,49.77
2018-02-23T17:20:39.191Z,50.47
2018-02-23T17:23:06.680Z,50.75
2018-02-23T17:25:34.200Z,49.10
2018-02-23T17:28:01.700Z,49.22
2018-02-23T17:30:29.240Z,50.64
2018-02-23T17:32:56.733Z,49.65
2018-02-23T17:35:24.285Z,50.78
2018-02-23T17:37:51.822Z,50.33
2018-02-23T17:40:19.407Z,50.71
2018-02-23T17:42:46.948Z,50.81
2018-02-23T17:45:14.447Z,52.28
2018-02-23T17:47:41.928Z,52.35
2018-02-23T17:50:09.461Z,52.50
2018-02-23T17:52:37.055Z,52.06
2018-02-23T17:55:04.553Z,53.44
2018-02-23T17:57:32.080Z,53.27
2018-02-23T17:59:59.531Z,53.11
2018-02-23T18:02:27.028Z,53.32
2018-02-23T18:04:54.500Z,52.75
2018-02-23T18:07:23.505Z,53.77
2018-02-23T18:09:51.216Z,54.62
2018-02-23T18:12:19.082Z,54.80
2018-02-23T18:14:46.736Z,52.88
2018-02-23T18:19:46.105Z,53.59
2018-02-23T18:22:13.746Z,54.65
2018-02-23T18:24:41.265Z,54.53
2018-02-23T18:27:08.749Z,54.83
2018-02-23T18:29:36.228Z,54.03
2018-02-23T18:32:03.836Z,53.87
2018-02-23T18:34:31.302Z,53.82
2018-02-23T18:36:59.164Z,54.15
2018-02-23T18:39:28.346Z,54.86
2018-02-23T18:41:56.047Z,54.44
2018-02-23T18:44:23.729Z,54.66
2018-02-23T18:46:51.446Z,55.06
2018-02-23T18:49:19.075Z,56.16
2018-02-23T18:51:46.842Z,57.66
2018-02-23T18:54:14.487Z,56.65
2018-02-23T18:56:42.046Z,54.76
2018-02-23T18:59:09.550Z,53.93
2018-02-23T19:01:37.988Z,54.52
2018-02-23T19:04:05.516Z,53.71
2018-02-23T19:06:33.060Z,53.11
2018-02-23T19:09:00.548Z,52.82
2018-02-23T19:11:29.544Z,53.55
2018-02-23T19:13:57.180Z,53.63
2018-02-23T19:16:24.728Z,52.92
2018-02-23T19:18:52.239Z,52.96
2018-02-23T19:21:19.842Z,52.91
2018-02-23T19:23:47.508Z,52.81
2018-02-23T19:26:14.982Z,54.20
2018-02-23T19:28:42.775Z,56.14
2018-02-23T19:31:10.331Z,56.16
2018-02-23T19:33:37.821Z,56.59
2018-02-23T19:36:06.148Z,55.11
2018-02-23T19:38:33.707Z,56.43
2018-02-23T19:41:01.216Z,57.92
2018-02-23T19:43:31.982Z,56.98
2018-02-23T19:46:02.188Z,56.36
2018-02-23T19:48:29.748Z,57.75
2018-02-23T19:50:57.734Z,57.83
2018-02-23T19:53:25.405Z,59.79
2018-02-23T19:55:52.891Z,60.12
2018-02-23T19:58:23.034Z,59.69
2018-02-23T20:00:50.717Z,59.58
2018-02-23T20:03:18.911Z,61.42
2018-02-23T20:05:47.549Z,62.03
2018-02-23T20:08:15.629Z,61.74
2018-02-23T20:10:43.128Z,62.23
2018-02-23T20:13:12.069Z,61.27
2018-02-23T20:15:40.733Z,61.20
2018-02-23T20:18:08.490Z,60.08
2018-02-23T20:20:37.377Z,60.21
2018-02-23T20:23:05.219Z,61.12
2018-02-23T20:25:32.728Z,59.16
2018-02-23T20:28:00.319Z,59.20
2018-02-23T20:30:28.806Z,59.25
2018-02-23T20:32:56.657Z,59.88
2018-02-23T20:38:20.001Z,60.04
2018-02-23T20:40:47.886Z,61.66
2018-02-23T20:43:15.624Z,64.08
2018-02-23T20:45:43.372Z,64.16
2018-02-23T20:48:11.023Z,61.86
2018-02-23T20:50:40.255Z,61.14
2018-02-23T20:53:08.068Z,60.63
2018-02-23T20:55:37.507Z,59.84
2018-02-23T20:58:05.422Z,58.56
2018-02-23T21:00:33.197Z,57.80
2018-02-23T21:03:00.727Z,57.58
2018-02-23T21:05:28.503Z,57.12
2018-02-23T21:07:56.052Z,56.98
2018-02-23T21:10:24.386Z,56.14
2018-02-23T21:12:51.915Z,57.22
2018-02-23T21:15:19.662Z,57.37
2018-02-23T21:17:48.103Z,56.43
2018-02-23T21:20:15.948Z,56.60
2018-02-23T21:22:43.742Z,56.28
2018-02-23T21:25:11.256Z,57.38
2018-02-23T21:27:39.769Z,57.48
2018-02-23T21:30:08.250Z,57.29
2018-02-23T21:32:36.071Z,56.68
2018-02-23T21:35:03.680Z,57.04
2018-02-23T21:37:31.822Z,57.68
2018-02-23T21:40:01.209Z,58.58
2018-02-23T21:42:29.038Z,56.88
2018-02-23T21:44:56.585Z,55.89
2018-02-23T21:47:24.554Z,56.14
2018-02-23T21:49:52.148Z,55.60
2018-02-23T21:52:19.691Z,56.34
2018-02-23T21:54:47.180Z,56.61
2018-02-23T21:57:14.869Z,56.20
2018-02-23T21:59:43.471Z,56.41
2018-02-23T22:02:11.007Z,57.19
2018-02-23T22:04:42.227Z,57.67
2018-02-23T22:07:09.924Z,57.92
2018-02-23T22:09:37.516Z,54.87
2018-02-23T22:12:05.227Z,55.28
2018-02-23T22:14:32.756Z,54.04
2018-02-23T22:17:00.908Z,55.36
2018-02-23T22:19:28.744Z,55.87
2018-02-23T22:21:56.712Z,56.86
2018-02-23T22:24:25.252Z,57.68
2018-02-23T22:26:52.735Z,57.75
2018-02-23T22:29:20.311Z,59.31
2018-02-23T22:31:47.832Z,60.44
2018-02-23T22:34:15.347Z,62.18
2018-02-23T22:36:42.826Z,61.92
2018-02-23T22:39:10.399Z,59.52
2018-02-23T22:41:37.895Z,59.02
2018-02-23T22:44:05.859Z,57.35
2018-02-23T22:46:33.331Z,56.83
2018-02-23T22:49:01.333Z,55.92
2018-02-23T22:51:28.992Z,54.87
2018-02-23T22:53:56.515Z,56.03
2018-02-23T22:56:24.214Z,56.20
2018-02-23T22:58:51.675Z,57.11
2018-02-23T23:01:19.228Z,55.45
2018-02-23T23:03:46.998Z,56.98
2018-02-23T23:06:14.490Z,56.28
2018-02-23T23:08:46.071Z,57.64
2018-02-23T23:11:13.559Z,57.16
2018-02-23T23:13:41.043Z,56.52
2018-02-23T23:16:08.818Z,57.19
2018-02-23T23:18:36.303Z,58.16
2018-02-23T23:21:03.850Z,57.58
2018-02-23T23:23:31.599Z,57.58
2018-02-23T23:25:59.202Z,56.25
2018-02-23T23:28:26.720Z,56.94
2018-02-23T23:30:54.614Z,56.59
2018-02-23T23:33:22.394Z,57.26
2018-02-23T23:35:49.924Z,59.26
2018-02-23T23:38:17.412Z,57.86
2018-02-23T23:40:45.186Z,59.59
2018-02-23T23:43:12.727Z,57.94
2018-02-23T23:45:40.262Z,58.94
2018-02-23T23:48:08.677Z,58.85
2018-02-23T23:50:36.408Z,59.55
2018-02-23T23:53:05.267Z,57.87
2018-02-23T23:55:32.759Z,60.31
2018-02-23T23:58:00.326Z,59.40
